Aérodrome :
LOGIN :

S'inscrire | Disclaimer

   EN    FR    IT 

 










Légende :    VFR   VFR Marginal   IFR   IFR Intensif   IFR Très Intensif
Visi : 
Plafond : 
>= 8 km
>= 3000ft
5 à 8 km
1000 à 3000 ft
1500m à 5 km
500 à 1000 ft
800 à 1500m
200 à 500 ft
< 800m
< 200 ft
Symboles :   Orages  Brouillard  Fortes neiges  Fortes précipitations  Vent > 20 kt
SIGMETs :   Divers  Orages  Givrage  Turbulence  Onde Orograph.  Cendres Volcan.






- Altitude de l'aérodrome : 141 ft
- Code IATA : TGD


LYPG - Podgorica - Montenegro

DERNIER METAR :
  • 031700Z 15010KT CAVOK 32/12 Q1007 NOSIG

METARs EXPIRÉS :
  • 031630Z 14012KT 110V180 CAVOK 33/08 Q1007 NOSIG
  • 031600Z 14013KT 110V170 CAVOK 34/12 Q1007 NOSIG
  • 031530Z 14013KT CAVOK 34/13 Q1007 NOSIG
  • 031500Z 14013KT 110V190 CAVOK 34/13 Q1007 NOSIG
  • 031430Z 14012KT 110V190 9999 FEW040 35/13 Q1008 NOSIG

TAF TAF LYPG
Valide du 03 à 12h jusqu'au 04 à 12h UTC


031100Z 0312/0412 22005KT CAVOK TX37/0314Z TN22/0403Z
TEMPO 0312/0317 16010KT
TEMPO 0408/0412 16015G25KT



MET'MAP, la Météo Aéronautique d'un coup d'oeil ! - Copyright ORBIFLY Décembre 2007 - Disclaimer

ORBIFLY MET'MAP TEAM :

Programmation & Développement : Alexandra Zaïnal
Sur une idée originale de : Baudouin d'Aumeries
Assistance à la programmation : Marc-Olivier Méhu
Soutien technique & logistique : Manuel Goepfert

Contact : metmap@orbifly.com




SOURCES & CREDITS :

   NOAA